sensor_id;sensor_type;location;lat;lon;timestamp;P1;durP1;ratioP1;P2;durP2;ratioP2
80423;SDS011;69765;47.668;19.326;2023-05-13T00:02:02;10.43;;;6.93;;
80423;SDS011;69765;47.668;19.326;2023-05-13T00:05:04;10.00;;;7.40;;
80423;SDS011;69765;47.668;19.326;2023-05-13T00:08:07;7.63;;;5.65;;
80423;SDS011;69765;47.668;19.326;2023-05-13T00:11:09;10.48;;;6.72;;
80423;SDS011;69765;47.668;19.326;2023-05-13T00:14:11;6.78;;;4.75;;
80423;SDS011;69765;47.668;19.326;2023-05-13T00:17:14;10.85;;;7.70;;
80423;SDS011;69765;47.668;19.326;2023-05-13T00:20:17;10.48;;;6.97;;
80423;SDS011;69765;47.668;19.326;2023-05-13T00:23:19;9.00;;;6.53;;
80423;SDS011;69765;47.668;19.326;2023-05-13T00:26:21;9.90;;;7.32;;
80423;SDS011;69765;47.668;19.326;2023-05-13T00:29:24;8.45;;;6.38;;
80423;SDS011;69765;47.668;19.326;2023-05-13T00:32:27;8.77;;;6.13;;
80423;SDS011;69765;47.668;19.326;2023-05-13T00:35:30;7.35;;;5.50;;
80423;SDS011;69765;47.668;19.326;2023-05-13T00:38:32;9.20;;;6.00;;
80423;SDS011;69765;47.668;19.326;2023-05-13T00:41:36;9.05;;;6.47;;
80423;SDS011;69765;47.668;19.326;2023-05-13T00:44:39;8.95;;;6.68;;
80423;SDS011;69765;47.668;19.326;2023-05-13T00:47:42;9.13;;;6.82;;
80423;SDS011;69765;47.668;19.326;2023-05-13T00:50:44;8.63;;;6.47;;
80423;SDS011;69765;47.668;19.326;2023-05-13T00:53:47;10.35;;;6.53;;
80423;SDS011;69765;47.668;19.326;2023-05-13T00:56:51;13.15;;;7.68;;
80423;SDS011;69765;47.668;19.326;2023-05-13T00:59:57;9.85;;;6.88;;
80423;SDS011;69765;47.668;19.326;2023-05-13T01:03:36;8.73;;;6.78;;
80423;SDS011;69765;47.668;19.326;2023-05-13T01:06:54;9.75;;;6.68;;
80423;SDS011;69765;47.668;19.326;2023-05-13T01:10:09;9.50;;;6.82;;
80423;SDS011;69765;47.668;19.326;2023-05-13T01:13:26;4.97;;;3.83;;
80423;SDS011;69765;47.668;19.326;2023-05-13T01:20:01;7.10;;;5.28;;
80423;SDS011;69765;47.668;19.326;2023-05-13T01:23:05;8.45;;;5.88;;
80423;SDS011;69765;47.668;19.326;2023-05-13T01:26:08;7.90;;;5.70;;
80423;SDS011;69765;47.668;19.326;2023-05-13T01:29:12;9.38;;;6.28;;
80423;SDS011;69765;47.668;19.326;2023-05-13T01:32:15;9.27;;;6.63;;
80423;SDS011;69765;47.668;19.326;2023-05-13T01:35:19;9.15;;;6.25;;
80423;SDS011;69765;47.668;19.326;2023-05-13T01:38:22;8.15;;;5.57;;
80423;SDS011;69765;47.668;19.326;2023-05-13T01:41:28;8.02;;;6.43;;
80423;SDS011;69765;47.668;19.326;2023-05-13T01:44:31;8.88;;;5.90;;
80423;SDS011;69765;47.668;19.326;2023-05-13T01:47:33;8.52;;;6.75;;
80423;SDS011;69765;47.668;19.326;2023-05-13T01:50:36;9.40;;;7.00;;
80423;SDS011;69765;47.668;19.326;2023-05-13T01:53:39;9.02;;;6.82;;
80423;SDS011;69765;47.668;19.326;2023-05-13T01:56:42;11.98;;;6.65;;
80423;SDS011;69765;47.668;19.326;2023-05-13T01:59:44;8.85;;;6.47;;
80423;SDS011;69765;47.668;19.326;2023-05-13T02:02:46;8.98;;;6.53;;
80423;SDS011;69765;47.668;19.326;2023-05-13T02:05:49;8.27;;;6.10;;
80423;SDS011;69765;47.668;19.326;2023-05-13T02:08:52;7.72;;;5.57;;
80423;SDS011;69765;47.668;19.326;2023-05-13T02:11:54;10.52;;;6.80;;
80423;SDS011;69765;47.668;19.326;2023-05-13T02:14:57;9.65;;;6.95;;
80423;SDS011;69765;47.668;19.326;2023-05-13T02:17:59;8.52;;;6.00;;
80423;SDS011;69765;47.668;19.326;2023-05-13T02:21:02;8.40;;;6.40;;
80423;SDS011;69765;47.668;19.326;2023-05-13T02:24:04;6.45;;;5.65;;
80423;SDS011;69765;47.668;19.326;2023-05-13T02:27:07;10.68;;;7.10;;
80423;SDS011;69765;47.668;19.326;2023-05-13T02:30:12;10.43;;;6.97;;
80423;SDS011;69765;47.668;19.326;2023-05-13T02:33:15;9.35;;;6.10;;
80423;SDS011;69765;47.668;19.326;2023-05-13T02:36:17;9.77;;;6.47;;
80423;SDS011;69765;47.668;19.326;2023-05-13T02:39:21;8.10;;;5.88;;
80423;SDS011;69765;47.668;19.326;2023-05-13T02:42:23;9.82;;;7.53;;
80423;SDS011;69765;47.668;19.326;2023-05-13T02:45:26;8.93;;;6.15;;
80423;SDS011;69765;47.668;19.326;2023-05-13T02:48:31;9.10;;;6.57;;
80423;SDS011;69765;47.668;19.326;2023-05-13T02:51:35;7.65;;;5.82;;
80423;SDS011;69765;47.668;19.326;2023-05-13T02:54:38;10.52;;;6.45;;
80423;SDS011;69765;47.668;19.326;2023-05-13T02:57:41;8.82;;;6.22;;
80423;SDS011;69765;47.668;19.326;2023-05-13T03:00:44;10.32;;;6.68;;
80423;SDS011;69765;47.668;19.326;2023-05-13T03:03:46;9.75;;;7.47;;
80423;SDS011;69765;47.668;19.326;2023-05-13T03:06:49;11.13;;;7.07;;
80423;SDS011;69765;47.668;19.326;2023-05-13T03:09:52;8.95;;;6.32;;
80423;SDS011;69765;47.668;19.326;2023-05-13T03:12:54;9.98;;;7.70;;
80423;SDS011;69765;47.668;19.326;2023-05-13T03:15:57;9.95;;;6.60;;
80423;SDS011;69765;47.668;19.326;2023-05-13T03:18:59;10.30;;;6.90;;
80423;SDS011;69765;47.668;19.326;2023-05-13T03:22:02;9.38;;;5.78;;
80423;SDS011;69765;47.668;19.326;2023-05-13T03:25:06;10.15;;;6.38;;
80423;SDS011;69765;47.668;19.326;2023-05-13T03:28:15;9.82;;;6.32;;
80423;SDS011;69765;47.668;19.326;2023-05-13T03:31:18;8.73;;;6.75;;
80423;SDS011;69765;47.668;19.326;2023-05-13T03:34:21;9.07;;;6.35;;
80423;SDS011;69765;47.668;19.326;2023-05-13T03:37:24;8.98;;;6.95;;
80423;SDS011;69765;47.668;19.326;2023-05-13T03:40:27;9.80;;;6.05;;
80423;SDS011;69765;47.668;19.326;2023-05-13T03:43:30;9.23;;;6.53;;
80423;SDS011;69765;47.668;19.326;2023-05-13T03:46:36;9.63;;;6.47;;
80423;SDS011;69765;47.668;19.326;2023-05-13T03:49:39;10.82;;;6.32;;
80423;SDS011;69765;47.668;19.326;2023-05-13T03:52:41;10.93;;;6.85;;
80423;SDS011;69765;47.668;19.326;2023-05-13T03:55:46;10.55;;;6.07;;
80423;SDS011;69765;47.668;19.326;2023-05-13T03:58:49;8.80;;;6.57;;
80423;SDS011;69765;47.668;19.326;2023-05-13T04:01:52;7.43;;;6.15;;
80423;SDS011;69765;47.668;19.326;2023-05-13T04:04:54;9.80;;;6.82;;
80423;SDS011;69765;47.668;19.326;2023-05-13T04:07:57;8.52;;;5.63;;
80423;SDS011;69765;47.668;19.326;2023-05-13T04:10:59;8.02;;;5.68;;
80423;SDS011;69765;47.668;19.326;2023-05-13T04:14:01;11.15;;;6.72;;
80423;SDS011;69765;47.668;19.326;2023-05-13T04:17:04;7.95;;;5.68;;
80423;SDS011;69765;47.668;19.326;2023-05-13T04:20:07;8.18;;;5.55;;
80423;SDS011;69765;47.668;19.326;2023-05-13T04:23:09;9.90;;;6.28;;
80423;SDS011;69765;47.668;19.326;2023-05-13T04:26:12;8.45;;;6.55;;
80423;SDS011;69765;47.668;19.326;2023-05-13T04:29:14;9.50;;;6.00;;
80423;SDS011;69765;47.668;19.326;2023-05-13T04:32:19;9.77;;;6.47;;
80423;SDS011;69765;47.668;19.326;2023-05-13T04:35:27;8.02;;;5.70;;
80423;SDS011;69765;47.668;19.326;2023-05-13T04:38:33;9.48;;;6.10;;
80423;SDS011;69765;47.668;19.326;2023-05-13T04:41:36;9.32;;;6.18;;
80423;SDS011;69765;47.668;19.326;2023-05-13T04:44:39;10.32;;;7.75;;
80423;SDS011;69765;47.668;19.326;2023-05-13T04:47:41;10.23;;;7.10;;
80423;SDS011;69765;47.668;19.326;2023-05-13T04:50:47;11.02;;;7.18;;
80423;SDS011;69765;47.668;19.326;2023-05-13T04:53:50;9.18;;;6.10;;
80423;SDS011;69765;47.668;19.326;2023-05-13T04:56:54;11.10;;;7.30;;
80423;SDS011;69765;47.668;19.326;2023-05-13T04:59:57;9.82;;;7.07;;
80423;SDS011;69765;47.668;19.326;2023-05-13T05:03:00;10.65;;;6.97;;
80423;SDS011;69765;47.668;19.326;2023-05-13T05:06:03;10.27;;;7.43;;
80423;SDS011;69765;47.668;19.326;2023-05-13T05:09:05;8.82;;;6.18;;
80423;SDS011;69765;47.668;19.326;2023-05-13T05:12:08;12.15;;;6.93;;
80423;SDS011;69765;47.668;19.326;2023-05-13T05:15:14;9.35;;;7.28;;
80423;SDS011;69765;47.668;19.326;2023-05-13T05:18:20;9.65;;;6.05;;
80423;SDS011;69765;47.668;19.326;2023-05-13T05:21:25;8.20;;;6.47;;
80423;SDS011;69765;47.668;19.326;2023-05-13T05:24:28;9.55;;;6.88;;
80423;SDS011;69765;47.668;19.326;2023-05-13T05:27:31;9.15;;;6.75;;
80423;SDS011;69765;47.668;19.326;2023-05-13T05:30:34;9.10;;;6.80;;
80423;SDS011;69765;47.668;19.326;2023-05-13T05:33:46;7.60;;;5.72;;
80423;SDS011;69765;47.668;19.326;2023-05-13T05:36:49;7.82;;;5.82;;
80423;SDS011;69765;47.668;19.326;2023-05-13T05:39:53;7.72;;;5.15;;
80423;SDS011;69765;47.668;19.326;2023-05-13T05:42:56;7.05;;;5.53;;
80423;SDS011;69765;47.668;19.326;2023-05-13T05:45:59;6.93;;;5.13;;
80423;SDS011;69765;47.668;19.326;2023-05-13T05:49:01;8.18;;;4.70;;
80423;SDS011;69765;47.668;19.326;2023-05-13T05:52:07;7.32;;;4.75;;
80423;SDS011;69765;47.668;19.326;2023-05-13T05:55:12;6.00;;;4.50;;
80423;SDS011;69765;47.668;19.326;2023-05-13T05:58:14;8.77;;;5.57;;
80423;SDS011;69765;47.668;19.326;2023-05-13T06:01:17;7.78;;;4.75;;
80423;SDS011;69765;47.668;19.326;2023-05-13T06:04:20;6.35;;;4.25;;
80423;SDS011;69765;47.668;19.326;2023-05-13T06:07:22;3.85;;;3.38;;
80423;SDS011;69765;47.668;19.326;2023-05-13T06:10:24;6.95;;;5.13;;
80423;SDS011;69765;47.668;19.326;2023-05-13T06:13:27;6.78;;;5.35;;
80423;SDS011;69765;47.668;19.326;2023-05-13T06:16:30;6.93;;;4.63;;
80423;SDS011;69765;47.668;19.326;2023-05-13T06:19:34;6.97;;;5.03;;
80423;SDS011;69765;47.668;19.326;2023-05-13T06:22:38;6.80;;;4.95;;
80423;SDS011;69765;47.668;19.326;2023-05-13T06:25:41;6.25;;;4.10;;
80423;SDS011;69765;47.668;19.326;2023-05-13T06:28:44;7.00;;;4.28;;
80423;SDS011;69765;47.668;19.326;2023-05-13T06:31:46;7.15;;;4.63;;
80423;SDS011;69765;47.668;19.326;2023-05-13T06:34:49;6.22;;;4.28;;
80423;SDS011;69765;47.668;19.326;2023-05-13T06:37:57;6.53;;;4.82;;
80423;SDS011;69765;47.668;19.326;2023-05-13T06:41:00;8.00;;;5.03;;
80423;SDS011;69765;47.668;19.326;2023-05-13T06:44:06;6.28;;;4.50;;
80423;SDS011;69765;47.668;19.326;2023-05-13T06:47:12;5.72;;;4.70;;
80423;SDS011;69765;47.668;19.326;2023-05-13T06:50:17;9.38;;;4.88;;
80423;SDS011;69765;47.668;19.326;2023-05-13T06:53:21;8.10;;;5.32;;
80423;SDS011;69765;47.668;19.326;2023-05-13T06:56:23;5.90;;;4.65;;
80423;SDS011;69765;47.668;19.326;2023-05-13T06:59:26;7.03;;;3.08;;
80423;SDS011;69765;47.668;19.326;2023-05-13T07:02:29;5.90;;;4.68;;
80423;SDS011;69765;47.668;19.326;2023-05-13T07:05:32;4.70;;;3.60;;
80423;SDS011;69765;47.668;19.326;2023-05-13T07:08:34;6.82;;;4.63;;
80423;SDS011;69765;47.668;19.326;2023-05-13T07:11:37;6.53;;;5.15;;
80423;SDS011;69765;47.668;19.326;2023-05-13T07:14:39;5.88;;;4.55;;
80423;SDS011;69765;47.668;19.326;2023-05-13T07:17:42;7.13;;;4.28;;
80423;SDS011;69765;47.668;19.326;2023-05-13T07:20:44;5.35;;;3.92;;
80423;SDS011;69765;47.668;19.326;2023-05-13T07:23:47;6.35;;;4.63;;
80423;SDS011;69765;47.668;19.326;2023-05-13T07:26:50;6.45;;;3.95;;
80423;SDS011;69765;47.668;19.326;2023-05-13T07:29:52;7.05;;;4.80;;
80423;SDS011;69765;47.668;19.326;2023-05-13T07:32:55;8.85;;;3.53;;
80423;SDS011;69765;47.668;19.326;2023-05-13T07:35:57;6.75;;;4.60;;
80423;SDS011;69765;47.668;19.326;2023-05-13T07:38:59;6.47;;;5.05;;
80423;SDS011;69765;47.668;19.326;2023-05-13T07:42:03;6.50;;;4.50;;
80423;SDS011;69765;47.668;19.326;2023-05-13T07:45:06;7.72;;;5.60;;
80423;SDS011;69765;47.668;19.326;2023-05-13T07:48:09;5.78;;;4.43;;
80423;SDS011;69765;47.668;19.326;2023-05-13T07:51:11;3.83;;;3.03;;
80423;SDS011;69765;47.668;19.326;2023-05-13T07:54:14;6.22;;;5.50;;
80423;SDS011;69765;47.668;19.326;2023-05-13T07:57:16;7.38;;;5.03;;
80423;SDS011;69765;47.668;19.326;2023-05-13T08:00:19;5.40;;;4.03;;
80423;SDS011;69765;47.668;19.326;2023-05-13T08:03:22;6.10;;;5.22;;
80423;SDS011;69765;47.668;19.326;2023-05-13T08:06:24;7.22;;;4.63;;
80423;SDS011;69765;47.668;19.326;2023-05-13T08:09:27;5.60;;;4.35;;
80423;SDS011;69765;47.668;19.326;2023-05-13T08:12:29;6.35;;;4.78;;
80423;SDS011;69765;47.668;19.326;2023-05-13T08:15:31;5.78;;;4.47;;
80423;SDS011;69765;47.668;19.326;2023-05-13T08:18:34;8.30;;;4.90;;
80423;SDS011;69765;47.668;19.326;2023-05-13T08:21:36;5.78;;;4.18;;
80423;SDS011;69765;47.668;19.326;2023-05-13T08:24:38;7.63;;;5.05;;
80423;SDS011;69765;47.668;19.326;2023-05-13T08:27:42;5.70;;;4.60;;
80423;SDS011;69765;47.668;19.326;2023-05-13T08:30:45;8.20;;;4.72;;
80423;SDS011;69765;47.668;19.326;2023-05-13T08:33:47;5.93;;;5.00;;
80423;SDS011;69765;47.668;19.326;2023-05-13T08:36:49;6.15;;;4.40;;
80423;SDS011;69765;47.668;19.326;2023-05-13T08:39:52;7.68;;;4.30;;
80423;SDS011;69765;47.668;19.326;2023-05-13T08:42:57;6.00;;;4.45;;
80423;SDS011;69765;47.668;19.326;2023-05-13T08:46:02;5.13;;;4.15;;
80423;SDS011;69765;47.668;19.326;2023-05-13T08:49:06;5.00;;;3.58;;
80423;SDS011;69765;47.668;19.326;2023-05-13T08:52:10;7.03;;;4.68;;
80423;SDS011;69765;47.668;19.326;2023-05-13T08:55:12;5.40;;;4.15;;
80423;SDS011;69765;47.668;19.326;2023-05-13T08:58:16;6.82;;;4.50;;
80423;SDS011;69765;47.668;19.326;2023-05-13T09:01:18;6.28;;;3.60;;
80423;SDS011;69765;47.668;19.326;2023-05-13T09:04:20;4.10;;;3.25;;
80423;SDS011;69765;47.668;19.326;2023-05-13T09:07:23;6.95;;;4.28;;
80423;SDS011;69765;47.668;19.326;2023-05-13T09:10:26;5.32;;;4.57;;
80423;SDS011;69765;47.668;19.326;2023-05-13T09:13:28;5.40;;;4.00;;
80423;SDS011;69765;47.668;19.326;2023-05-13T09:16:32;4.85;;;4.07;;
80423;SDS011;69765;47.668;19.326;2023-05-13T09:19:37;5.25;;;3.83;;
80423;SDS011;69765;47.668;19.326;2023-05-13T09:22:44;5.05;;;3.78;;
80423;SDS011;69765;47.668;19.326;2023-05-13T09:25:50;6.22;;;4.18;;
80423;SDS011;69765;47.668;19.326;2023-05-13T09:32:17;7.03;;;4.60;;
80423;SDS011;69765;47.668;19.326;2023-05-13T09:35:19;5.20;;;3.78;;
80423;SDS011;69765;47.668;19.326;2023-05-13T09:38:26;6.00;;;4.53;;
80423;SDS011;69765;47.668;19.326;2023-05-13T09:41:30;7.45;;;5.00;;
80423;SDS011;69765;47.668;19.326;2023-05-13T09:44:33;5.68;;;3.97;;
80423;SDS011;69765;47.668;19.326;2023-05-13T09:47:35;7.25;;;4.18;;
80423;SDS011;69765;47.668;19.326;2023-05-13T09:50:47;5.80;;;4.50;;
80423;SDS011;69765;47.668;19.326;2023-05-13T09:53:51;6.15;;;4.43;;
80423;SDS011;69765;47.668;19.326;2023-05-13T09:56:57;6.43;;;4.70;;
80423;SDS011;69765;47.668;19.326;2023-05-13T10:00:01;6.15;;;4.65;;
80423;SDS011;69765;47.668;19.326;2023-05-13T10:03:16;6.65;;;4.75;;
80423;SDS011;69765;47.668;19.326;2023-05-13T10:06:19;7.18;;;5.15;;
80423;SDS011;69765;47.668;19.326;2023-05-13T10:09:28;6.35;;;4.75;;
80423;SDS011;69765;47.668;19.326;2023-05-13T10:12:36;6.47;;;4.90;;
80423;SDS011;69765;47.668;19.326;2023-05-13T10:15:52;7.60;;;5.25;;
80423;SDS011;69765;47.668;19.326;2023-05-13T10:18:56;6.90;;;4.93;;
80423;SDS011;69765;47.668;19.326;2023-05-13T10:22:02;4.50;;;3.70;;
80423;SDS011;69765;47.668;19.326;2023-05-13T10:25:06;7.68;;;4.72;;
80423;SDS011;69765;47.668;19.326;2023-05-13T10:28:10;5.82;;;4.70;;
80423;SDS011;69765;47.668;19.326;2023-05-13T10:31:12;5.88;;;4.50;;
80423;SDS011;69765;47.668;19.326;2023-05-13T10:34:15;6.18;;;4.70;;
80423;SDS011;69765;47.668;19.326;2023-05-13T10:40:49;5.90;;;4.90;;
80423;SDS011;69765;47.668;19.326;2023-05-13T10:43:56;7.80;;;6.63;;
80423;SDS011;69765;47.668;19.326;2023-05-13T10:47:00;11.07;;;9.60;;
80423;SDS011;69765;47.668;19.326;2023-05-13T10:50:04;6.57;;;5.30;;
80423;SDS011;69765;47.668;19.326;2023-05-13T10:53:08;7.55;;;6.00;;
80423;SDS011;69765;47.668;19.326;2023-05-13T10:56:19;7.65;;;5.75;;
80423;SDS011;69765;47.668;19.326;2023-05-13T10:59:23;7.78;;;5.75;;
80423;SDS011;69765;47.668;19.326;2023-05-13T11:02:25;13.00;;;11.05;;
80423;SDS011;69765;47.668;19.326;2023-05-13T11:05:33;5.70;;;5.03;;
80423;SDS011;69765;47.668;19.326;2023-05-13T11:08:36;8.25;;;7.10;;
80423;SDS011;69765;47.668;19.326;2023-05-13T11:11:40;8.57;;;6.57;;
80423;SDS011;69765;47.668;19.326;2023-05-13T11:14:47;7.90;;;6.18;;
80423;SDS011;69765;47.668;19.326;2023-05-13T11:17:52;7.97;;;5.32;;
80423;SDS011;69765;47.668;19.326;2023-05-13T11:20:54;5.80;;;4.60;;
80423;SDS011;69765;47.668;19.326;2023-05-13T11:24:01;7.28;;;4.68;;
80423;SDS011;69765;47.668;19.326;2023-05-13T11:27:12;7.00;;;5.10;;
80423;SDS011;69765;47.668;19.326;2023-05-13T11:30:22;5.25;;;4.25;;
80423;SDS011;69765;47.668;19.326;2023-05-13T11:33:58;6.05;;;4.25;;
80423;SDS011;69765;47.668;19.326;2023-05-13T11:37:10;7.38;;;4.53;;
80423;SDS011;69765;47.668;19.326;2023-05-13T11:40:19;5.82;;;5.18;;
80423;SDS011;69765;47.668;19.326;2023-05-13T11:43:25;6.07;;;4.15;;
80423;SDS011;69765;47.668;19.326;2023-05-13T11:46:28;5.13;;;4.57;;
80423;SDS011;69765;47.668;19.326;2023-05-13T11:49:44;6.25;;;5.65;;
80423;SDS011;69765;47.668;19.326;2023-05-13T11:52:57;6.32;;;4.80;;
80423;SDS011;69765;47.668;19.326;2023-05-13T11:56:08;5.40;;;4.50;;
80423;SDS011;69765;47.668;19.326;2023-05-13T11:59:14;6.85;;;4.45;;
80423;SDS011;69765;47.668;19.326;2023-05-13T12:02:20;8.55;;;5.35;;
80423;SDS011;69765;47.668;19.326;2023-05-13T12:05:24;5.57;;;4.80;;
80423;SDS011;69765;47.668;19.326;2023-05-13T12:08:28;6.45;;;5.72;;
80423;SDS011;69765;47.668;19.326;2023-05-13T12:11:31;6.53;;;5.32;;
80423;SDS011;69765;47.668;19.326;2023-05-13T12:14:33;7.78;;;5.32;;
80423;SDS011;69765;47.668;19.326;2023-05-13T12:17:36;7.88;;;5.32;;
80423;SDS011;69765;47.668;19.326;2023-05-13T12:20:38;8.02;;;5.82;;
80423;SDS011;69765;47.668;19.326;2023-05-13T12:23:41;7.22;;;5.63;;
80423;SDS011;69765;47.668;19.326;2023-05-13T12:26:43;7.15;;;5.35;;
80423;SDS011;69765;47.668;19.326;2023-05-13T12:29:45;9.35;;;6.20;;
80423;SDS011;69765;47.668;19.326;2023-05-13T12:32:48;6.82;;;5.05;;
80423;SDS011;69765;47.668;19.326;2023-05-13T12:35:51;9.57;;;5.53;;
80423;SDS011;69765;47.668;19.326;2023-05-13T12:38:58;6.95;;;5.63;;
80423;SDS011;69765;47.668;19.326;2023-05-13T12:42:02;7.57;;;5.53;;
80423;SDS011;69765;47.668;19.326;2023-05-13T12:45:04;6.80;;;4.57;;
80423;SDS011;69765;47.668;19.326;2023-05-13T12:48:07;7.30;;;5.13;;
80423;SDS011;69765;47.668;19.326;2023-05-13T12:51:10;6.38;;;4.30;;
80423;SDS011;69765;47.668;19.326;2023-05-13T12:54:12;10.20;;;4.97;;
80423;SDS011;69765;47.668;19.326;2023-05-13T12:57:15;6.50;;;5.32;;
80423;SDS011;69765;47.668;19.326;2023-05-13T13:00:18;7.82;;;4.60;;
80423;SDS011;69765;47.668;19.326;2023-05-13T13:03:21;8.43;;;5.78;;
80423;SDS011;69765;47.668;19.326;2023-05-13T13:06:25;7.63;;;4.93;;
80423;SDS011;69765;47.668;19.326;2023-05-13T13:09:28;5.93;;;4.03;;
80423;SDS011;69765;47.668;19.326;2023-05-13T13:12:30;6.50;;;4.28;;
80423;SDS011;69765;47.668;19.326;2023-05-13T13:15:32;5.78;;;4.45;;
80423;SDS011;69765;47.668;19.326;2023-05-13T13:18:35;7.05;;;4.20;;
80423;SDS011;69765;47.668;19.326;2023-05-13T13:21:37;5.13;;;4.40;;
80423;SDS011;69765;47.668;19.326;2023-05-13T13:24:39;5.90;;;5.00;;
80423;SDS011;69765;47.668;19.326;2023-05-13T13:27:42;5.28;;;4.20;;
80423;SDS011;69765;47.668;19.326;2023-05-13T13:30:44;5.15;;;3.97;;
80423;SDS011;69765;47.668;19.326;2023-05-13T13:33:48;7.05;;;4.10;;
80423;SDS011;69765;47.668;19.326;2023-05-13T13:36:50;4.78;;;3.63;;
80423;SDS011;69765;47.668;19.326;2023-05-13T13:39:52;5.53;;;3.63;;
80423;SDS011;69765;47.668;19.326;2023-05-13T13:42:55;4.88;;;4.13;;
80423;SDS011;69765;47.668;19.326;2023-05-13T13:45:57;6.05;;;3.85;;
80423;SDS011;69765;47.668;19.326;2023-05-13T13:48:59;7.60;;;4.35;;
80423;SDS011;69765;47.668;19.326;2023-05-13T13:52:11;6.53;;;4.30;;
80423;SDS011;69765;47.668;19.326;2023-05-13T13:55:13;7.20;;;4.10;;
80423;SDS011;69765;47.668;19.326;2023-05-13T13:58:16;6.40;;;3.50;;
80423;SDS011;69765;47.668;19.326;2023-05-13T14:01:19;5.97;;;3.60;;
80423;SDS011;69765;47.668;19.326;2023-05-13T14:04:21;5.28;;;3.55;;
80423;SDS011;69765;47.668;19.326;2023-05-13T14:07:24;8.90;;;3.80;;
80423;SDS011;69765;47.668;19.326;2023-05-13T14:10:27;4.80;;;3.97;;
80423;SDS011;69765;47.668;19.326;2023-05-13T14:13:29;5.20;;;3.90;;
80423;SDS011;69765;47.668;19.326;2023-05-13T14:16:31;6.22;;;4.35;;
80423;SDS011;69765;47.668;19.326;2023-05-13T14:19:34;7.20;;;4.35;;
80423;SDS011;69765;47.668;19.326;2023-05-13T14:22:36;4.97;;;4.28;;
80423;SDS011;69765;47.668;19.326;2023-05-13T14:25:38;5.70;;;4.10;;
80423;SDS011;69765;47.668;19.326;2023-05-13T14:28:41;6.68;;;3.88;;
80423;SDS011;69765;47.668;19.326;2023-05-13T14:31:43;6.20;;;4.03;;
80423;SDS011;69765;47.668;19.326;2023-05-13T14:34:46;5.03;;;4.13;;
80423;SDS011;69765;47.668;19.326;2023-05-13T14:37:48;6.03;;;4.60;;
80423;SDS011;69765;47.668;19.326;2023-05-13T14:40:50;5.45;;;3.70;;
80423;SDS011;69765;47.668;19.326;2023-05-13T14:43:53;5.75;;;4.30;;
80423;SDS011;69765;47.668;19.326;2023-05-13T14:46:55;6.57;;;4.35;;
80423;SDS011;69765;47.668;19.326;2023-05-13T14:49:58;5.82;;;3.97;;
80423;SDS011;69765;47.668;19.326;2023-05-13T14:53:00;6.65;;;4.60;;
80423;SDS011;69765;47.668;19.326;2023-05-13T14:56:03;4.50;;;4.05;;
80423;SDS011;69765;47.668;19.326;2023-05-13T14:59:06;5.60;;;4.07;;
80423;SDS011;69765;47.668;19.326;2023-05-13T15:02:08;6.72;;;3.75;;
80423;SDS011;69765;47.668;19.326;2023-05-13T15:05:10;8.02;;;4.10;;
80423;SDS011;69765;47.668;19.326;2023-05-13T15:08:13;5.72;;;3.65;;
80423;SDS011;69765;47.668;19.326;2023-05-13T15:11:15;5.93;;;4.28;;
80423;SDS011;69765;47.668;19.326;2023-05-13T15:14:18;5.60;;;3.83;;
80423;SDS011;69765;47.668;19.326;2023-05-13T15:17:22;5.30;;;4.13;;
80423;SDS011;69765;47.668;19.326;2023-05-13T15:20:24;6.28;;;3.88;;
80423;SDS011;69765;47.668;19.326;2023-05-13T15:23:27;5.65;;;3.83;;
80423;SDS011;69765;47.668;19.326;2023-05-13T15:26:29;4.53;;;3.72;;
80423;SDS011;69765;47.668;19.326;2023-05-13T15:29:31;7.30;;;3.78;;
80423;SDS011;69765;47.668;19.326;2023-05-13T15:32:34;5.32;;;4.18;;
80423;SDS011;69765;47.668;19.326;2023-05-13T15:35:37;5.85;;;4.03;;
80423;SDS011;69765;47.668;19.326;2023-05-13T15:38:40;6.00;;;4.45;;
80423;SDS011;69765;47.668;19.326;2023-05-13T15:41:43;5.38;;;4.10;;
80423;SDS011;69765;47.668;19.326;2023-05-13T15:44:45;5.57;;;3.75;;
80423;SDS011;69765;47.668;19.326;2023-05-13T15:47:47;7.15;;;4.18;;
80423;SDS011;69765;47.668;19.326;2023-05-13T15:50:50;6.38;;;3.53;;
80423;SDS011;69765;47.668;19.326;2023-05-13T15:53:53;5.80;;;4.22;;
80423;SDS011;69765;47.668;19.326;2023-05-13T15:56:55;5.35;;;4.22;;
80423;SDS011;69765;47.668;19.326;2023-05-13T15:59:59;7.85;;;4.53;;
80423;SDS011;69765;47.668;19.326;2023-05-13T16:03:02;6.10;;;4.53;;
80423;SDS011;69765;47.668;19.326;2023-05-13T16:06:04;6.03;;;4.57;;
80423;SDS011;69765;47.668;19.326;2023-05-13T16:09:07;6.60;;;4.28;;
80423;SDS011;69765;47.668;19.326;2023-05-13T16:12:10;9.38;;;4.47;;
80423;SDS011;69765;47.668;19.326;2023-05-13T16:15:12;5.90;;;4.95;;
80423;SDS011;69765;47.668;19.326;2023-05-13T16:18:15;5.50;;;4.55;;
80423;SDS011;69765;47.668;19.326;2023-05-13T16:21:17;7.20;;;4.22;;
80423;SDS011;69765;47.668;19.326;2023-05-13T16:24:20;4.95;;;3.80;;
80423;SDS011;69765;47.668;19.326;2023-05-13T16:27:23;6.20;;;3.78;;
80423;SDS011;69765;47.668;19.326;2023-05-13T16:30:25;4.35;;;3.50;;
80423;SDS011;69765;47.668;19.326;2023-05-13T16:33:28;5.28;;;4.25;;
80423;SDS011;69765;47.668;19.326;2023-05-13T16:36:31;5.82;;;4.22;;
80423;SDS011;69765;47.668;19.326;2023-05-13T16:39:33;6.20;;;4.65;;
80423;SDS011;69765;47.668;19.326;2023-05-13T16:42:36;6.05;;;4.60;;
80423;SDS011;69765;47.668;19.326;2023-05-13T16:45:39;6.75;;;4.88;;
80423;SDS011;69765;47.668;19.326;2023-05-13T16:48:43;7.80;;;4.97;;
80423;SDS011;69765;47.668;19.326;2023-05-13T16:51:45;7.70;;;5.28;;
80423;SDS011;69765;47.668;19.326;2023-05-13T16:54:48;5.97;;;4.40;;
80423;SDS011;69765;47.668;19.326;2023-05-13T16:57:51;6.35;;;4.35;;
80423;SDS011;69765;47.668;19.326;2023-05-13T17:00:54;7.35;;;4.60;;
80423;SDS011;69765;47.668;19.326;2023-05-13T17:04:00;6.55;;;5.22;;
80423;SDS011;69765;47.668;19.326;2023-05-13T17:07:02;6.97;;;4.90;;
80423;SDS011;69765;47.668;19.326;2023-05-13T17:10:05;7.57;;;5.30;;
80423;SDS011;69765;47.668;19.326;2023-05-13T17:13:08;9.57;;;5.20;;
80423;SDS011;69765;47.668;19.326;2023-05-13T17:16:10;6.95;;;4.72;;
80423;SDS011;69765;47.668;19.326;2023-05-13T17:19:12;7.00;;;4.30;;
80423;SDS011;69765;47.668;19.326;2023-05-13T17:22:15;8.00;;;4.68;;
80423;SDS011;69765;47.668;19.326;2023-05-13T17:25:18;8.13;;;5.03;;
80423;SDS011;69765;47.668;19.326;2023-05-13T17:28:20;8.13;;;4.28;;
80423;SDS011;69765;47.668;19.326;2023-05-13T17:31:22;6.53;;;4.30;;
80423;SDS011;69765;47.668;19.326;2023-05-13T17:34:26;5.88;;;4.20;;
80423;SDS011;69765;47.668;19.326;2023-05-13T17:37:28;7.10;;;4.60;;
80423;SDS011;69765;47.668;19.326;2023-05-13T17:40:31;6.63;;;4.80;;
80423;SDS011;69765;47.668;19.326;2023-05-13T17:43:33;6.05;;;4.43;;
80423;SDS011;69765;47.668;19.326;2023-05-13T17:46:35;5.95;;;4.38;;
80423;SDS011;69765;47.668;19.326;2023-05-13T17:49:38;6.35;;;5.00;;
80423;SDS011;69765;47.668;19.326;2023-05-13T17:52:40;6.70;;;4.97;;
80423;SDS011;69765;47.668;19.326;2023-05-13T17:55:42;6.40;;;5.05;;
80423;SDS011;69765;47.668;19.326;2023-05-13T17:58:45;6.25;;;4.40;;
80423;SDS011;69765;47.668;19.326;2023-05-13T18:01:47;6.15;;;5.15;;
80423;SDS011;69765;47.668;19.326;2023-05-13T18:04:50;7.70;;;4.68;;
80423;SDS011;69765;47.668;19.326;2023-05-13T18:07:53;8.70;;;4.68;;
80423;SDS011;69765;47.668;19.326;2023-05-13T18:10:55;6.13;;;4.78;;
80423;SDS011;69765;47.668;19.326;2023-05-13T18:13:58;6.85;;;5.10;;
80423;SDS011;69765;47.668;19.326;2023-05-13T18:17:00;6.50;;;5.00;;
80423;SDS011;69765;47.668;19.326;2023-05-13T18:20:02;6.10;;;4.75;;